Terminal Aerodrome Forecast
Issued by NWS

Home | Current Version | Previous Version | Graphics & Text | Print | Product List | Glossary Off
Versions: 1 2 3 4 5 6 7 8 9 10 11 12 13 14 15

000
FTUS43 KDDC 270520
TAFGCK
TAF
KGCK 270520Z 2706/2806 17010KT P6SM BKN060
     FM272000 17013KT P6SM SCT110
     FM280400 14008KT P6SM BKN200=

USA.gov is the U.S. government's official web portal to all federal, state and local government web resources and services.